Time;durP1;ratioP1;P1;durP2;ratioP2;P2;SDS_P1;SDS_P2;PMS_P1;PMS_P2;Temp;Humidity;BMP_temperature;BMP_pressure;BME280_temperature;BME280_humidity;BME280_pressure;Samples;Min_cycle;Max_cycle;Signal;HPM_P1;HPM_P2
2023/03/19 00:02:05;;;;;;;11.10;7.97;;;;;;;12.58;50.15;95868.06;5028811;28;20179;-68
2023/03/19 00:04:31;;;;;;;9.43;7.33;;;;;;;12.80;50.20;95872.84;5029127;28;20851;-68
2023/03/19 00:06:56;;;;;;;20.17;7.43;;;;;;;12.66;49.65;95868.47;5029092;28;20533;-67
2023/03/19 00:09:22;;;;;;;20.10;8.17;;;;;;;12.90;49.67;95860.84;5029401;28;20242;-67
2023/03/19 00:11:47;;;;;;;20.83;8.00;;;;;;;12.95;48.98;95865.81;5029367;28;20541;-68
2023/03/19 00:14:14;;;;;;;12.83;7.50;;;;;;;12.92;50.13;95861.59;5029071;28;20186;-67
2023/03/19 00:16:40;;;;;;;22.40;8.00;;;;;;;13.04;48.91;95870.53;5028732;28;20219;-68
2023/03/19 00:19:06;;;;;;;10.40;7.57;;;;;;;13.03;49.27;95865.34;5029084;28;20977;-68
2023/03/19 00:21:31;;;;;;;9.13;7.60;;;;;;;12.96;48.65;95862.25;5028945;28;20418;-68
2023/03/19 00:24:01;;;;;;;8.57;7.70;;;;;;;12.93;49.19;95860.66;5029031;28;20182;-68
2023/03/19 00:26:31;;;;;;;8.60;6.80;;;;;;;12.69;50.30;95862.16;5028455;28;20191;-68
2023/03/19 00:28:57;;;;;;;10.13;7.83;;;;;;;12.74;50.28;95870.63;5029019;28;20406;-68
2023/03/19 00:31:23;;;;;;;13.93;7.80;;;;;;;12.87;49.21;95866.31;5028721;28;20874;-68
2023/03/19 00:33:49;;;;;;;15.60;7.03;;;;;;;12.89;49.37;95867.03;5028753;28;20632;-68
2023/03/19 00:36:15;;;;;;;12.10;7.30;;;;;;;12.84;49.70;95869.09;5028562;28;20496;-68
2023/03/19 00:38:42;;;;;;;12.80;7.80;;;;;;;12.83;49.58;95858.69;5028728;28;20310;-67
2023/03/19 00:41:07;;;;;;;9.83;7.17;;;;;;;12.86;49.31;95864.59;5028752;28;20514;-68
2023/03/19 00:43:33;;;;;;;12.00;7.97;;;;;;;12.85;49.38;95867.31;5028419;28;20410;-69
2023/03/19 00:45:59;;;;;;;12.77;7.97;;;;;;;12.58;50.45;95865.44;5028022;28;20207;-68
2023/03/19 00:48:25;;;;;;;14.70;8.07;;;;;;;12.79;49.58;95873.81;5030074;28;20184;-68
2023/03/19 00:50:50;;;;;;;11.10;8.77;;;;;;;12.84;49.45;95863.84;5030636;28;20653;-68
2023/03/19 00:53:16;;;;;;;16.20;8.20;;;;;;;12.82;50.16;95868.34;5028690;28;20201;-68
2023/03/19 00:55:41;;;;;;;12.93;7.73;;;;;;;12.68;50.43;95869.22;5028626;28;20207;-68
2023/03/19 00:58:09;;;;;;;12.07;8.40;;;;;;;12.89;49.30;95877.56;5028290;28;20175;-68
2023/03/19 01:00:35;;;;;;;12.10;7.57;;;;;;;12.62;50.85;95876.63;5028130;28;20175;-68
2023/03/19 01:03:00;;;;;;;8.80;6.80;;;;;;;12.59;50.95;95884.69;5028097;28;20402;-68
2023/03/19 01:05:26;;;;;;;8.87;7.10;;;;;;;12.58;50.18;95875.13;5028097;28;20484;-69
2023/03/19 01:07:52;;;;;;;7.97;6.10;;;;;;;12.82;49.42;95884.16;5027855;28;20179;-68
2023/03/19 01:10:21;;;;;;;7.13;6.33;;;;;;;12.57;50.15;95879.53;5028174;28;20261;-69
2023/03/19 01:12:47;;;;;;;9.70;6.83;;;;;;;12.46;50.85;95882.81;5027247;28;20167;-68
2023/03/19 01:15:12;;;;;;;7.30;6.60;;;;;;;12.37;50.79;95883.34;5027454;28;21099;-69
2023/03/19 01:17:38;;;;;;;9.20;6.57;;;;;;;12.54;50.41;95876.22;5027589;28;20484;-68
2023/03/19 01:20:07;;;;;;;8.70;7.10;;;;;;;12.57;50.82;95876.06;5028013;28;20172;-67
2023/03/19 01:22:35;;;;;;;12.10;7.40;;;;;;;12.43;50.77;95879.53;5027737;28;20289;-68
2023/03/19 01:25:01;;;;;;;9.23;7.73;;;;;;;12.10;52.15;95874.47;5027619;28;20430;-68
2023/03/19 01:27:27;;;;;;;10.90;7.60;;;;;;;11.94;52.47;95870.09;5027271;28;20410;-68
2023/03/19 01:29:52;;;;;;;8.30;6.90;;;;;;;12.16;52.60;95881.97;5030636;28;20483;-69
2023/03/19 01:32:18;;;;;;;9.57;7.00;;;;;;;12.25;52.00;95877.03;5030267;28;20599;-69
2023/03/19 01:34:43;;;;;;;15.97;7.17;;;;;;;12.39;51.47;95881.47;5028224;28;20610;-68
2023/03/19 01:37:09;;;;;;;9.83;7.43;;;;;;;12.61;51.21;95888.94;5028083;28;20203;-68
2023/03/19 01:39:34;;;;;;;10.93;6.17;;;;;;;12.72;50.22;95888.28;5027594;28;20245;-68
2023/03/19 01:42:01;;;;;;;8.60;7.03;;;;;;;12.79;49.96;95888.78;5027512;28;20175;-68
2023/03/19 01:44:29;;;;;;;9.47;7.80;;;;;;;12.64;50.51;95880.03;5027252;28;20265;-68
2023/03/19 01:46:57;;;;;;;12.40;9.20;;;;;;;12.59;51.69;95888.19;5027488;28;20407;-68
2023/03/19 01:49:25;;;;;;;12.67;10.57;;;;;;;12.46;52.46;95880.16;5028080;28;21002;-68
2023/03/19 01:51:52;;;;;;;17.97;10.90;;;;;;;12.41;53.22;95890.13;5028091;28;20425;-68
2023/03/19 01:54:21;;;;;;;14.40;12.30;;;;;;;12.47;52.60;95889.78;5028425;28;20426;-68
2023/03/19 01:56:51;;;;;;;13.00;11.80;;;;;;;12.44;53.11;95884.69;5027150;28;20556;-69
2023/03/19 01:59:24;;;;;;;16.13;14.33;;;;;;;12.32;54.27;95882.78;5028383;28;20406;-68
2023/03/19 02:01:56;;;;;;;15.40;10.93;;;;;;;12.31;54.27;95889.00;5026140;28;20418;-68
2023/03/19 02:04:24;;;;;;;18.87;11.87;;;;;;;12.29;54.11;95893.50;5027143;28;20420;-68
2023/03/19 02:06:50;;;;;;;16.83;12.50;;;;;;;12.33;53.96;95895.00;5026926;28;20816;-67
2023/03/19 02:09:17;;;;;;;14.97;12.47;;;;;;;12.43;54.37;95901.41;5026958;28;20414;-68
2023/03/19 02:11:44;;;;;;;14.03;12.53;;;;;;;12.29;54.60;95896.13;5027053;28;21175;-68
2023/03/19 02:14:09;;;;;;;13.00;11.63;;;;;;;12.35;53.97;95906.28;5026889;28;21043;-68
2023/03/19 02:16:35;;;;;;;12.97;11.77;;;;;;;12.36;54.07;95907.13;5026523;28;20468;-68
2023/03/19 02:19:00;;;;;;;16.50;12.30;;;;;;;12.35;54.29;95910.69;5026824;28;20182;-68
2023/03/19 02:21:26;;;;;;;14.87;11.40;;;;;;;12.34;54.99;95915.13;5026923;28;20214;-68
2023/03/19 02:24:02;;;;;;;15.40;10.83;;;;;;;12.30;55.39;95918.84;5026643;28;20568;-68
2023/03/19 02:26:29;;;;;;;18.17;11.00;;;;;;;12.37;54.95;95921.97;5026332;28;20645;-68
2023/03/19 02:28:55;;;;;;;14.83;11.30;;;;;;;12.27;55.47;95924.31;5026586;28;20420;-67
2023/03/19 02:31:21;;;;;;;13.90;10.40;;;;;;;12.29;55.57;95925.06;5026497;28;20422;-67
2023/03/19 02:33:57;;;;;;;10.93;9.83;;;;;;;12.20;55.39;95931.69;5026521;28;20263;-67
2023/03/19 02:36:22;;;;;;;10.53;9.40;;;;;;;12.28;55.56;95932.13;5026304;28;20465;-67
2023/03/19 02:38:50;;;;;;;12.83;10.27;;;;;;;12.17;55.93;95937.16;5027914;28;20512;-68
2023/03/19 02:41:15;;;;;;;14.33;10.03;;;;;;;12.12;56.33;95931.31;5027509;28;20180;-68
2023/03/19 02:43:41;;;;;;;11.20;9.57;;;;;;;12.08;56.47;95946.41;5027528;28;21156;-69
2023/03/19 02:46:10;;;;;;;10.80;8.90;;;;;;;12.16;56.58;95931.97;5026591;28;20234;-69
2023/03/19 02:48:38;;;;;;;10.17;9.03;;;;;;;12.22;56.45;95932.47;5027327;28;20449;-69
2023/03/19 02:51:04;;;;;;;11.27;8.80;;;;;;;12.26;55.75;95939.25;5026937;28;20487;-69
2023/03/19 02:53:30;;;;;;;11.70;9.43;;;;;;;12.21;57.00;95927.28;5026873;28;20833;-69
2023/03/19 02:55:55;;;;;;;10.17;9.23;;;;;;;12.33;55.97;95933.59;5026076;28;20466;-68
2023/03/19 02:58:21;;;;;;;12.33;9.70;;;;;;;12.43;55.83;95940.88;5026462;28;20229;-69
2023/03/19 03:00:46;;;;;;;11.83;10.43;;;;;;;12.43;55.84;95935.63;5026286;28;20176;-68
2023/03/19 03:03:12;;;;;;;13.60;9.87;;;;;;;12.46;55.61;95940.69;5026015;28;20615;-67
2023/03/19 03:05:37;;;;;;;12.80;9.10;;;;;;;12.39;55.69;95941.16;5026140;28;20594;-67
2023/03/19 03:08:04;;;;;;;10.83;9.57;;;;;;;12.49;55.67;95943.16;5026278;28;20233;-68
2023/03/19 03:10:30;;;;;;;11.80;9.07;;;;;;;12.44;56.48;95941.72;5026381;28;20183;-68
2023/03/19 03:12:56;;;;;;;10.10;9.10;;;;;;;12.35;56.16;95940.47;5026408;28;20782;-68
2023/03/19 03:15:22;;;;;;;13.33;8.90;;;;;;;12.25;56.81;95941.94;5026196;28;20484;-68
2023/03/19 03:17:47;;;;;;;11.83;8.67;;;;;;;12.29;55.93;95946.94;5025964;28;20168;-68
2023/03/19 03:20:16;;;;;;;21.73;10.10;;;;;;;12.17;56.96;95947.66;5026191;28;20175;-68
2023/03/19 03:22:43;;;;;;;11.97;9.60;;;;;;;12.06;57.28;95953.53;5026237;28;20556;-68
2023/03/19 03:25:09;;;;;;;18.50;9.00;;;;;;;11.88;58.19;95954.56;5026172;28;21017;-68
2023/03/19 03:27:35;;;;;;;10.30;9.10;;;;;;;11.93;58.49;95960.44;5025908;28;20483;-67
2023/03/19 03:30:07;;;;;;;15.43;10.00;;;;;;;11.85;58.55;95963.44;5026457;28;20427;-68
2023/03/19 03:32:33;;;;;;;33.03;12.93;;;;;;;11.92;58.28;95960.50;5026196;28;20421;-67
2023/03/19 03:34:58;;;;;;;10.53;8.13;;;;;;;11.88;59.05;95964.25;5026231;28;20434;-68
2023/03/19 03:37:24;;;;;;;15.30;9.40;;;;;;;11.71;59.19;95962.53;5028021;28;20273;-68
2023/03/19 03:39:49;;;;;;;11.43;8.30;;;;;;;11.55;59.45;95971.25;5029805;28;20263;-69
2023/03/19 03:42:15;;;;;;;8.53;3.67;;;;;;;12.10;53.94;95974.41;5030028;28;20210;-68
2023/03/19 03:44:41;;;;;;;7.93;3.33;;;;;;;12.28;51.75;95971.56;5031134;28;20238;-68
2023/03/19 03:47:07;;;;;;;3.37;2.37;;;;;;;12.54;50.99;95977.09;5030577;28;20266;-68
2023/03/19 03:49:32;;;;;;;3.70;2.80;;;;;;;12.62;51.14;95987.19;5031330;28;20187;-67
2023/03/19 03:51:57;;;;;;;3.13;2.80;;;;;;;12.62;51.50;95987.19;5030870;28;20163;-69
2023/03/19 03:54:23;;;;;;;3.70;2.83;;;;;;;12.64;51.49;95986.16;5031761;28;20175;-69
2023/03/19 03:56:49;;;;;;;3.90;2.90;;;;;;;12.63;52.24;95988.88;5029257;28;20207;-68
2023/03/19 03:59:15;;;;;;;4.97;3.07;;;;;;;12.67;52.00;95985.13;5029571;28;20195;-69
2023/03/19 04:01:41;;;;;;;4.13;2.97;;;;;;;12.59;52.93;95987.34;5029341;28;20418;-69
2023/03/19 04:04:06;;;;;;;3.30;2.80;;;;;;;12.67;53.47;95988.59;5029328;28;20178;-68
2023/03/19 04:06:32;;;;;;;6.37;3.37;;;;;;;12.69;52.98;95986.72;5029190;28;20414;-69
2023/03/19 04:08:57;;;;;;;7.27;3.03;;;;;;;12.56;53.76;95995.44;5029250;28;20168;-68
2023/03/19 04:11:23;;;;;;;2.97;2.33;;;;;;;12.59;53.61;95993.50;5029616;28;20179;-68
2023/03/19 04:13:48;;;;;;;5.70;3.43;;;;;;;12.63;53.33;95994.97;5029291;28;20176;-69
2023/03/19 04:16:14;;;;;;;5.30;3.63;;;;;;;12.58;54.20;96002.31;5028890;28;20322;-68
2023/03/19 04:18:40;;;;;;;6.93;3.50;;;;;;;12.61;54.09;96003.91;5029091;28;20559;-69
2023/03/19 04:21:06;;;;;;;4.53;2.63;;;;;;;12.53;54.46;96006.16;5028998;28;20182;-69
2023/03/19 04:23:32;;;;;;;3.43;3.13;;;;;;;12.64;54.32;96012.50;5029100;28;20175;-69
2023/03/19 04:26:02;;;;;;;4.87;3.40;;;;;;;12.60;55.69;96018.84;5028609;28;20422;-69
2023/03/19 04:28:29;;;;;;;3.40;3.10;;;;;;;12.53;56.90;96022.78;5029081;28;20195;-69
2023/03/19 04:30:59;;;;;;;6.30;3.10;;;;;;;12.56;57.65;96025.22;5028857;28;20416;-69
2023/03/19 04:33:24;;;;;;;6.63;3.73;;;;;;;12.43;57.99;96030.38;5028859;28;20414;-69
2023/03/19 04:35:49;;;;;;;8.10;3.43;;;;;;;12.41;58.20;96034.88;5028584;28;20465;-69
2023/03/19 04:38:15;;;;;;;4.43;3.10;;;;;;;12.50;58.96;96047.50;5029009;28;20175;-68
2023/03/19 04:40:40;;;;;;;5.17;3.80;;;;;;;12.48;59.40;96054.63;5028569;28;20536;-69
2023/03/19 04:43:06;;;;;;;9.83;3.70;;;;;;;12.36;60.27;96054.50;5028991;28;20172;-69
2023/03/19 04:45:31;;;;;;;6.57;3.70;;;;;;;12.26;60.90;96065.53;5028521;28;20249;-69
2023/03/19 04:47:57;;;;;;;4.13;3.73;;;;;;;12.33;60.90;96065.16;5028103;28;20241;-68
2023/03/19 04:50:23;;;;;;;5.97;4.20;;;;;;;12.36;60.93;96062.38;5028709;28;20176;-67
2023/03/19 04:52:48;;;;;;;8.60;4.00;;;;;;;12.24;61.23;96077.06;5028493;28;20212;-66
2023/03/19 04:55:14;;;;;;;3.87;3.33;;;;;;;12.21;61.50;96079.84;5028542;28;20257;-67
2023/03/19 04:57:39;;;;;;;5.00;3.40;;;;;;;12.13;62.91;96075.03;5028972;28;20750;-69
2023/03/19 05:00:05;;;;;;;5.00;4.20;;;;;;;12.01;64.39;96073.91;5028469;28;20267;-69
2023/03/19 05:02:31;;;;;;;5.77;4.30;;;;;;;12.05;64.72;96075.47;5028363;28;20682;-68
2023/03/19 05:04:56;;;;;;;4.57;3.90;;;;;;;12.04;65.81;96073.75;5028233;28;20437;-67
2023/03/19 05:07:22;;;;;;;12.27;5.10;;;;;;;12.07;65.89;96070.97;5028202;28;20175;-68
2023/03/19 05:09:47;;;;;;;13.77;4.80;;;;;;;12.06;65.48;96069.25;5028430;28;20257;-68
2023/03/19 05:12:13;;;;;;;4.50;3.93;;;;;;;12.03;65.73;96085.22;5028320;28;20177;-67
2023/03/19 05:14:38;;;;;;;10.10;4.43;;;;;;;12.04;65.71;96086.88;5028028;28;20305;-68
2023/03/19 05:17:04;;;;;;;14.83;5.43;;;;;;;12.11;64.64;96089.19;5027642;28;20211;-67
2023/03/19 05:19:30;;;;;;;12.30;5.40;;;;;;;12.03;65.20;96095.72;5028017;28;20171;-67
2023/03/19 05:21:56;;;;;;;5.30;4.63;;;;;;;12.05;65.43;96093.88;5028154;28;20633;-68
2023/03/19 05:24:22;;;;;;;7.77;4.40;;;;;;;12.09;65.26;96097.16;5027866;28;20413;-67
2023/03/19 05:26:48;;;;;;;6.10;4.00;;;;;;;12.01;65.45;96096.75;5027705;28;20166;-67
2023/03/19 05:29:13;;;;;;;7.80;5.20;;;;;;;11.91;65.88;96095.56;5027874;28;20835;-67
2023/03/19 05:31:39;;;;;;;5.70;4.47;;;;;;;11.88;65.71;96100.97;5014074;28;20207;-67
2023/03/19 05:34:05;;;;;;;6.73;5.27;;;;;;;11.94;65.51;96096.22;5006621;28;20172;-68
2023/03/19 05:36:30;;;;;;;12.10;5.73;;;;;;;12.03;64.99;96094.88;5007654;28;20498;-67
2023/03/19 05:38:56;;;;;;;8.03;4.60;;;;;;;12.06;65.10;96095.56;5007857;28;20168;-68
2023/03/19 05:41:21;;;;;;;12.97;6.33;;;;;;;12.12;65.63;96090.88;5007854;28;20615;-67
2023/03/19 05:43:47;;;;;;;11.20;5.57;;;;;;;12.08;65.10;96101.56;5006667;28;20549;-67
2023/03/19 05:46:12;;;;;;;20.87;5.50;;;;;;;12.10;65.32;96100.66;5007495;28;20198;-68
2023/03/19 05:48:38;;;;;;;6.67;4.50;;;;;;;12.14;64.19;96107.44;5007880;28;20176;-69
2023/03/19 05:51:04;;;;;;;19.67;6.17;;;;;;;11.91;65.97;96112.19;5007724;28;20172;-68
2023/03/19 05:53:29;;;;;;;17.43;6.30;;;;;;;12.00;65.73;96111.69;5007566;28;20182;-67
2023/03/19 05:55:55;;;;;;;4.83;4.13;;;;;;;11.98;66.76;96113.53;5005797;28;20502;-67
2023/03/19 05:58:20;;;;;;;8.93;4.50;;;;;;;12.15;66.22;96109.16;5007630;28;20225;-67
2023/03/19 06:00:47;;;;;;;7.50;4.90;;;;;;;12.17;64.94;96113.38;5007345;28;20619;-68
2023/03/19 06:03:13;;;;;;;14.17;5.90;;;;;;;12.12;65.37;96109.28;5007382;28;20254;-69
2023/03/19 06:05:38;;;;;;;12.40;5.87;;;;;;;11.96;65.72;96110.13;5007148;28;20561;-69
2023/03/19 06:08:04;;;;;;;5.17;4.70;;;;;;;11.63;68.13;96110.13;5007473;28;20259;-68
2023/03/19 06:10:30;;;;;;;7.47;4.90;;;;;;;11.63;68.63;96123.28;5007435;28;20652;-69
2023/03/19 06:12:55;;;;;;;9.13;5.07;;;;;;;11.87;67.69;96123.78;5007561;28;20293;-69
2023/03/19 06:15:21;;;;;;;4.67;4.27;;;;;;;11.66;69.05;96126.56;5007341;28;20255;-69
2023/03/19 06:17:46;;;;;;;6.67;5.50;;;;;;;11.66;69.47;96125.72;5007300;28;20200;-69
2023/03/19 06:20:12;;;;;;;6.30;5.70;;;;;;;11.72;68.33;96124.56;5007236;28;20657;-69
2023/03/19 06:22:37;;;;;;;4.60;4.20;;;;;;;11.83;69.28;96135.34;5008142;28;20172;-69
2023/03/19 06:25:03;;;;;;;5.27;4.77;;;;;;;11.96;68.52;96136.44;5009145;28;20258;-68
2023/03/19 06:27:28;;;;;;;5.47;4.87;;;;;;;11.97;68.32;96139.91;5008049;28;20165;-68
2023/03/19 06:29:54;;;;;;;5.67;5.10;;;;;;;11.79;68.33;96142.56;5006446;28;20660;-68
2023/03/19 06:32:19;;;;;;;6.70;6.00;;;;;;;11.89;68.71;96144.75;5007515;28;20220;-68
2023/03/19 06:34:45;;;;;;;8.30;5.33;;;;;;;12.11;66.74;96149.69;5007399;28;20315;-68
2023/03/19 06:37:11;;;;;;;16.83;6.27;;;;;;;12.13;66.27;96148.69;5006818;28;20562;-67
2023/03/19 06:39:37;;;;;;;8.47;5.13;;;;;;;12.09;66.88;96152.41;5007304;28;20175;-68
2023/03/19 06:42:02;;;;;;;26.83;7.40;;;;;;;12.00;66.90;96151.13;5012326;28;20223;-68
2023/03/19 06:44:27;;;;;;;16.93;7.50;;;;;;;12.10;66.88;96148.00;5012669;28;20439;-68
2023/03/19 06:46:53;;;;;;;7.43;4.80;;;;;;;12.15;66.55;96152.06;5015692;28;20172;-68
2023/03/19 06:49:18;;;;;;;8.50;5.77;;;;;;;12.11;66.96;96139.16;5017566;28;20175;-70
2023/03/19 06:51:44;;;;;;;13.17;5.67;;;;;;;12.19;66.46;96147.47;5016766;28;20174;-69
2023/03/19 06:54:09;;;;;;;9.43;6.60;;;;;;;12.07;67.56;96141.97;5010801;28;20579;-68
2023/03/19 06:56:35;;;;;;;15.80;6.40;;;;;;;12.10;67.05;96148.00;5006630;28;20218;-68
2023/03/19 06:59:01;;;;;;;9.30;6.23;;;;;;;12.19;67.48;96144.84;5007011;28;20242;-68
2023/03/19 07:01:26;;;;;;;10.80;6.20;;;;;;;12.13;66.92;96159.19;5006853;28;20694;-68
2023/03/19 07:03:51;;;;;;;8.53;6.37;;;;;;;12.06;67.42;96150.78;5006991;28;20173;-68
2023/03/19 07:06:17;;;;;;;10.77;7.20;;;;;;;12.13;67.33;96153.94;5006846;28;20192;-68
2023/03/19 07:08:45;;;;;;;12.20;7.57;;;;;;;12.31;66.33;96157.38;5007089;28;20258;-68
2023/03/19 07:11:11;;;;;;;10.13;6.67;;;;;;;12.37;65.71;96166.69;5007000;28;20188;-67
2023/03/19 07:13:37;;;;;;;6.67;5.30;;;;;;;12.51;64.28;96166.78;5010719;28;20419;-68
2023/03/19 07:16:03;;;;;;;5.80;4.97;;;;;;;12.36;64.30;96167.63;5010198;28;20474;-69
2023/03/19 07:18:28;;;;;;;5.10;4.60;;;;;;;12.32;64.91;96179.25;5010710;28;20172;-68
2023/03/19 07:20:54;;;;;;;5.67;4.53;;;;;;;12.36;64.86;96165.84;5010687;28;20211;-68
2023/03/19 07:23:20;;;;;;;5.20;4.70;;;;;;;12.26;66.91;96180.44;5010757;28;20626;-67
2023/03/19 07:25:46;;;;;;;11.90;5.70;;;;;;;12.26;67.14;96180.44;5010392;28;20207;-67
2023/03/19 07:28:12;;;;;;;24.43;6.60;;;;;;;12.28;66.27;96178.56;5010202;28;20422;-67
2023/03/19 07:30:38;;;;;;;18.80;6.30;;;;;;;12.25;66.86;96190.09;5010580;28;20422;-67
2023/03/19 07:33:05;;;;;;;8.27;5.60;;;;;;;12.40;65.65;96179.66;5010534;28;20415;-68
2023/03/19 07:35:31;;;;;;;10.83;5.63;;;;;;;12.47;65.46;96178.41;5010433;28;20204;-68
2023/03/19 07:37:58;;;;;;;14.60;6.03;;;;;;;12.29;66.05;96185.53;5010558;28;20837;-67
2023/03/19 07:40:23;;;;;;;12.30;5.90;;;;;;;12.20;66.98;96188.66;5011450;28;20212;-68
2023/03/19 07:42:50;;;;;;;8.00;5.80;;;;;;;12.28;66.13;96191.72;5013156;28;20442;-68
2023/03/19 07:45:15;;;;;;;13.73;6.00;;;;;;;12.17;66.63;96189.69;5013433;28;20640;-68
2023/03/19 07:47:41;;;;;;;14.10;6.20;;;;;;;12.16;66.75;96195.00;5011404;28;20450;-68
2023/03/19 07:50:07;;;;;;;8.97;5.90;;;;;;;12.04;67.46;96194.72;5015381;28;20172;-69
2023/03/19 07:52:33;;;;;;;34.37;8.47;;;;;;;12.04;67.60;96186.84;5022104;28;20172;-69
2023/03/19 07:54:58;;;;;;;31.67;8.37;;;;;;;12.26;67.06;96196.25;5023618;28;20438;-69
2023/03/19 07:57:24;;;;;;;8.90;5.37;;;;;;;12.22;66.18;96195.53;5023960;28;20200;-68
2023/03/19 07:59:50;;;;;;;11.50;7.10;;;;;;;12.30;66.26;96197.75;5022156;28;20176;-68
2023/03/19 08:02:17;;;;;;;10.07;5.87;;;;;;;12.42;65.76;96197.06;5014418;28;20483;-68
2023/03/19 08:04:42;;;;;;;9.13;6.83;;;;;;;12.50;65.83;96192.25;5011147;28;20469;-68
2023/03/19 08:07:12;;;;;;;8.67;6.20;;;;;;;12.51;65.62;96187.84;5011308;28;20435;-68
2023/03/19 08:09:39;;;;;;;6.93;6.23;;;;;;;12.48;65.98;96186.22;5010431;28;20269;-68
2023/03/19 08:12:05;;;;;;;10.23;6.40;;;;;;;12.46;65.11;96177.56;5009846;28;20423;-67
2023/03/19 08:14:32;;;;;;;7.00;5.97;;;;;;;12.46;65.98;96187.25;5009510;28;20443;-68
2023/03/19 08:16:58;;;;;;;6.07;5.50;;;;;;;12.66;65.18;96188.75;5009442;28;21150;-68
2023/03/19 08:19:24;;;;;;;13.23;5.97;;;;;;;12.55;66.56;96186.75;5009740;28;20451;-68
2023/03/19 08:21:50;;;;;;;15.00;5.47;;;;;;;12.68;65.97;96182.50;5009202;28;20283;-68
2023/03/19 08:24:16;;;;;;;11.97;6.33;;;;;;;12.78;65.44;96190.75;5009315;28;20180;-68
2023/03/19 08:26:42;;;;;;;7.13;6.43;;;;;;;12.77;64.64;96186.38;5009372;28;20184;-68
2023/03/19 08:29:07;;;;;;;9.17;6.03;;;;;;;12.84;64.81;96185.09;5009340;28;20414;-68
2023/03/19 08:31:32;;;;;;;6.00;5.50;;;;;;;12.94;64.46;96185.44;5009429;28;20176;-68
2023/03/19 08:34:03;;;;;;;9.93;6.90;;;;;;;13.10;64.45;96183.63;5009253;28;20926;-69
2023/03/19 08:36:29;;;;;;;6.90;6.20;;;;;;;12.98;64.03;96188.75;5008797;28;20225;-68
2023/03/19 08:38:55;;;;;;;8.60;5.47;;;;;;;12.84;64.63;96186.91;5009413;28;20418;-69
2023/03/19 08:41:21;;;;;;;14.13;7.03;;;;;;;12.96;64.95;96185.34;5009310;28;20419;-69
2023/03/19 08:43:47;;;;;;;12.90;7.10;;;;;;;12.82;64.94;96194.03;5009291;28;20231;-69
2023/03/19 08:46:12;;;;;;;32.37;9.80;;;;;;;12.90;64.87;96192.69;5008854;28;20443;-69
2023/03/19 08:48:38;;;;;;;44.77;9.37;;;;;;;13.06;63.38;96192.66;5009424;28;20292;-69
2023/03/19 08:51:04;;;;;;;12.87;7.17;;;;;;;13.13;63.83;96201.91;5009097;28;20176;-69
2023/03/19 08:53:30;;;;;;;7.83;5.50;;;;;;;13.17;63.85;96193.81;5008884;28;20255;-70
2023/03/19 08:56:01;;;;;;;8.33;5.70;;;;;;;13.14;63.17;96195.69;5008532;28;20617;-68
2023/03/19 08:58:27;;;;;;;6.57;5.30;;;;;;;12.84;63.71;96197.44;5008829;28;20491;-68
2023/03/19 09:01:00;;;;;;;6.07;5.50;;;;;;;12.87;63.83;96199.88;5008912;28;20517;-68
2023/03/19 09:03:26;;;;;;;5.80;5.30;;;;;;;12.95;63.60;96202.09;5008678;28;20449;-69
2023/03/19 09:05:51;;;;;;;10.53;5.40;;;;;;;13.18;61.83;96193.75;5008224;28;20454;-67
2023/03/19 09:08:17;;;;;;;6.60;5.70;;;;;;;13.14;61.43;96197.47;5008711;28;20203;-68
2023/03/19 09:10:42;;;;;;;14.50;6.37;;;;;;;13.01;61.83;96204.38;5008648;28;20211;-69
2023/03/19 09:13:08;;;;;;;6.27;5.67;;;;;;;12.55;64.06;96197.28;5008751;28;20180;-68
2023/03/19 09:15:33;;;;;;;9.57;6.67;;;;;;;12.79;64.34;96197.69;5008102;28;20196;-68
2023/03/19 09:17:59;;;;;;;13.67;5.40;;;;;;;13.37;61.64;96200.59;5008377;28;20172;-68
2023/03/19 09:20:25;;;;;;;23.67;6.13;;;;;;;13.63;61.17;96197.31;5008323;28;20176;-68
2023/03/19 09:22:50;;;;;;;11.23;5.10;;;;;;;13.83;57.96;96192.63;5008473;28;20184;-67
2023/03/19 09:25:15;;;;;;;23.00;6.00;;;;;;;14.19;57.85;96200.91;5008431;28;20196;-69
2023/03/19 09:27:41;;;;;;;18.43;7.60;;;;;;;14.46;56.50;96200.16;5007992;28;20191;-69
2023/03/19 09:30:08;;;;;;;14.70;5.50;;;;;;;15.00;54.41;96189.72;5008419;28;20222;-69
2023/03/19 09:32:34;;;;;;;12.20;5.47;;;;;;;15.53;52.59;96186.25;5008245;28;20184;-70
2023/03/19 09:35:00;;;;;;;8.33;4.90;;;;;;;15.80;50.66;96189.72;5007467;28;20500;-69
2023/03/19 09:37:25;;;;;;;11.00;3.90;;;;;;;15.58;51.40;96182.34;5007798;28;20474;-70
2023/03/19 09:39:51;;;;;;;5.37;4.67;;;;;;;15.62;52.40;96188.28;5008043;28;20215;-68
2023/03/19 09:42:37;;;;;;;15.33;4.37;;;;;;;16.16;49.76;96192.56;5008027;28;20805;-68
2023/03/19 09:45:03;;;;;;;8.07;4.43;;;;;;;16.33;48.01;96183.47;5007576;28;20211;-68
2023/03/19 09:47:35;;;;;;;11.97;5.17;;;;;;;16.59;47.68;96179.81;5007617;28;20407;-69
2023/03/19 09:50:10;;;;;;;7.80;3.83;;;;;;;16.90;46.65;96177.63;5007682;28;20415;-68
2023/03/19 09:52:53;;;;;;;5.00;3.70;;;;;;;16.99;46.25;96181.44;5007860;28;20754;-68
2023/03/19 09:55:27;;;;;;;4.10;3.10;;;;;;;17.14;46.15;96170.53;5007891;28;20549;-69
2023/03/19 09:57:55;;;;;;;10.37;4.30;;;;;;;17.18;45.54;96168.50;5007476;28;20459;-68
2023/03/19 10:00:21;;;;;;;6.67;3.70;;;;;;;17.46;45.32;96163.81;5007603;28;20415;-68
2023/03/19 10:03:00;;;;;;;4.17;3.53;;;;;;;17.61;44.90;96162.63;5007545;28;20423;-69
2023/03/19 10:06:02;;;;;;;3.83;3.43;;;;;;;17.99;43.54;96162.38;5007347;28;20530;-68
2023/03/19 10:08:38;;;;;;;6.40;3.53;;;;;;;17.93;42.35;96156.72;5007224;28;20411;-68
2023/03/19 10:11:31;;;;;;;8.90;3.97;;;;;;;18.03;43.27;96154.19;5007709;28;20465;-68
2023/03/19 10:14:15;;;;;;;8.00;3.53;;;;;;;18.30;41.67;96154.66;5007511;28;20544;-68
2023/03/19 10:16:45;;;;;;;11.93;4.07;;;;;;;18.46;40.15;96159.63;5006886;28;20893;-68
2023/03/19 10:19:15;;;;;;;8.67;4.20;;;;;;;18.39;40.34;96155.75;5007274;28;20567;-68
2023/03/19 10:21:59;;;;;;;8.97;4.00;;;;;;;18.48;39.71;96143.56;5007467;28;20416;-69
2023/03/19 10:24:35;;;;;;;11.27;3.60;;;;;;;18.58;39.42;96142.69;5007227;28;20774;-69
2023/03/19 10:27:10;;;;;;;14.50;3.80;;;;;;;18.75;39.47;96133.34;5007016;28;21005;-68
2023/03/19 10:29:37;;;;;;;9.17;3.40;;;;;;;18.62;39.38;96135.31;5006835;28;20414;-69
2023/03/19 10:32:23;;;;;;;4.67;3.40;;;;;;;18.89;38.73;96129.59;5006830;28;20441;-68
2023/03/19 10:34:52;;;;;;;4.20;3.00;;;;;;;18.52;39.08;96131.69;5007107;28;20517;-68
2023/03/19 10:37:21;;;;;;;4.93;3.20;;;;;;;18.80;38.90;96133.00;5006897;28;20458;-68
2023/03/19 10:39:49;;;;;;;4.97;3.17;;;;;;;18.94;38.01;96124.75;5007111;28;20415;-68
2023/03/19 10:42:46;;;;;;;4.73;3.10;;;;;;;18.73;37.46;96124.69;5005876;28;20798;-68
2023/03/19 10:45:25;;;;;;;5.43;3.50;;;;;;;18.83;37.61;96119.50;5006472;28;20450;-68
2023/03/19 10:47:51;;;;;;;4.50;3.43;;;;;;;18.99;36.92;96119.06;5006442;28;20407;-69
2023/03/19 10:50:31;;;;;;;9.90;3.90;;;;;;;19.17;36.20;96117.53;5006942;28;20831;-67
2023/03/19 10:53:22;;;;;;;5.80;3.60;;;;;;;19.19;35.45;96115.59;5006914;28;20411;-68
2023/03/19 10:56:03;;;;;;;4.53;3.10;;;;;;;19.21;35.15;96115.50;5006345;28;20431;-68
2023/03/19 10:58:31;;;;;;;5.10;3.00;;;;;;;19.13;35.26;96116.09;5006520;28;20514;-68
2023/03/19 11:01:06;;;;;;;8.90;3.20;;;;;;;19.37;34.94;96113.25;5007404;28;20443;-70
2023/03/19 11:03:49;;;;;;;8.63;3.30;;;;;;;19.30;35.07;96119.19;5008233;28;20450;-68
2023/03/19 11:06:22;;;;;;;4.90;2.80;;;;;;;19.42;35.00;96116.34;5006866;28;20442;-69
2023/03/19 11:09:08;;;;;;;4.30;2.70;;;;;;;19.55;34.47;96110.84;5007077;28;20485;-69
2023/03/19 11:11:52;;;;;;;4.97;3.27;;;;;;;19.64;33.84;96107.41;5003014;28;20532;-70
2023/03/19 11:14:24;;;;;;;5.00;4.00;;;;;;;19.66;33.42;96102.78;5007403;28;20481;-69
2023/03/19 11:16:56;;;;;;;5.10;3.20;;;;;;;19.47;33.96;96102.66;5006988;28;20811;-69
2023/03/19 11:19:25;;;;;;;6.33;3.07;;;;;;;19.17;34.83;96101.59;5007180;28;20473;-69
2023/03/19 11:22:20;;;;;;;6.40;2.70;;;;;;;19.11;33.70;96107.44;5007135;28;20423;-69
2023/03/19 11:24:52;;;;;;;5.70;3.43;;;;;;;19.59;32.83;96103.44;5005969;28;20553;-68
2023/03/19 11:27:25;;;;;;;7.93;3.03;;;;;;;19.84;32.65;96097.75;5006752;28;20724;-69
2023/03/19 11:29:50;;;;;;;6.70;3.03;;;;;;;19.99;32.29;96086.75;5006724;28;20796;-69
2023/03/19 11:32:34;;;;;;;4.00;2.50;;;;;;;19.76;32.67;96091.38;5006599;28;20423;-69